Terminal Aerodrome Forecast
Issued by NWS

Home | Current Version | Previous Version | Text Only | Print | Product List | Glossary On
Versions: 1 2 3 4 5 6 7 8 9 10 11 12 13 14
000
FTUS45 KTFX 050537
TAFLWT
TAF
KLWT 050537Z 0506/0606 15005KT P6SM SCT150
     FM052000 25011KT P6SM SCT070 BKN120
     FM060300 35012KT P6SM SCT050 BKN070=

USA.gov is the U.S. government's official web portal to all federal, state and local government web resources and services.